Strona główna
METAR-TAF:

METAR-TAF

Lotnisko :

Port lotniczy Dżibuti-Ambouli

Dżibuti, Dżibuti

Szerokość geograficzna: 11-33N, Długość geograficzna: 043-10E, wysokość: 49 m

METAR: brakujący

czas: 07:14 (04:14 UTC)

Prognoza

Raport powstał 5 godziny i 14 minut temu, godzina 23:00 UTC
Prognoza ważna od 14 godzina 00 UTC do 14 godzina 24 UTC
Wiatr kt od północ
Widzialność: 9000 m
Rozproszone chmury na wysokości 13300 ft
zmętnienie
Stopniowe zmiany
od 14 godzina 06 UTC do 14 godzina 12 UTC
Wiatr 10 kt od wschód w porywach dochodzący do 15 kt
Widzialność: 8000 m
Rozproszone chmury na wysokości 2300 ft
Mało chmury na wysokości 13300 ft
zmętnienie
Stopniowe zmiany
od 14 godzina 15 UTC do 14 godzina 21 UTC
Wiatr 5 kt z kierunków zmiennych
Mało chmury na wysokości 2000 ft

TAF: HDAM 132300Z 1400/1424 00000KT 9000 HZ SCT133 BECMG 1406/1412 08010G15KT 8000 HZ SCT023 FEW133 BECMG 1415/1421 VRB05KT FEW020

Obserwacja i prognoza pogody dla ponad 4000 lotnisk (raport METAR i TAF).

Dostępne stacje oznaczono żółtymi i czerwonymi punktami na mapie.

Najedź kursorem aby zobaczyć nazwę stacji.

Kliknij aby zobaczyć obserwacje i prognozy pogody.

Aby zmienić mapę: kliknij na zielony przycisk z czarnym krzyżykiem, aby powiększyć; na zielony przycisk z myślnikiem, aby pomniejszyć; na zielone strzałki, aby przejść do map sąsiednich.


METAR-TAF: